sensor_id;sensor_type;location;lat;lon;timestamp;P1;durP1;ratioP1;P2;durP2;ratioP2
25846;SDS011;13676;50.168;8.568;2022-12-11T00:00:18;26.67;;;16.50;;
25846;SDS011;13676;50.168;8.568;2022-12-11T00:02:43;25.48;;;16.73;;
25846;SDS011;13676;50.168;8.568;2022-12-11T00:05:09;29.08;;;16.85;;
25846;SDS011;13676;50.168;8.568;2022-12-11T00:07:34;30.30;;;17.38;;
25846;SDS011;13676;50.168;8.568;2022-12-11T00:10:00;30.48;;;17.90;;
25846;SDS011;13676;50.168;8.568;2022-12-11T00:12:25;29.45;;;17.50;;
25846;SDS011;13676;50.168;8.568;2022-12-11T00:14:50;24.98;;;16.40;;
25846;SDS011;13676;50.168;8.568;2022-12-11T00:17:16;24.73;;;16.13;;
25846;SDS011;13676;50.168;8.568;2022-12-11T00:19:41;30.10;;;17.45;;
25846;SDS011;13676;50.168;8.568;2022-12-11T00:22:06;26.60;;;16.40;;
25846;SDS011;13676;50.168;8.568;2022-12-11T00:24:32;24.45;;;16.13;;
25846;SDS011;13676;50.168;8.568;2022-12-11T00:26:57;26.77;;;17.33;;
25846;SDS011;13676;50.168;8.568;2022-12-11T00:29:24;28.58;;;17.38;;
25846;SDS011;13676;50.168;8.568;2022-12-11T00:31:49;28.55;;;17.80;;
25846;SDS011;13676;50.168;8.568;2022-12-11T00:34:14;31.90;;;19.60;;
25846;SDS011;13676;50.168;8.568;2022-12-11T00:36:40;30.48;;;18.08;;
25846;SDS011;13676;50.168;8.568;2022-12-11T00:39:05;27.08;;;18.17;;
25846;SDS011;13676;50.168;8.568;2022-12-11T00:41:31;26.38;;;16.25;;
25846;SDS011;13676;50.168;8.568;2022-12-11T00:43:56;28.50;;;17.23;;
25846;SDS011;13676;50.168;8.568;2022-12-11T00:46:22;31.20;;;19.30;;
25846;SDS011;13676;50.168;8.568;2022-12-11T00:48:47;29.20;;;17.48;;
25846;SDS011;13676;50.168;8.568;2022-12-11T00:51:14;32.30;;;19.70;;
25846;SDS011;13676;50.168;8.568;2022-12-11T00:53:40;30.75;;;19.02;;
25846;SDS011;13676;50.168;8.568;2022-12-11T00:56:13;28.30;;;17.90;;
25846;SDS011;13676;50.168;8.568;2022-12-11T00:58:42;34.92;;;21.02;;
25846;SDS011;13676;50.168;8.568;2022-12-11T01:01:08;30.88;;;20.23;;
25846;SDS011;13676;50.168;8.568;2022-12-11T01:03:34;34.58;;;21.45;;
25846;SDS011;13676;50.168;8.568;2022-12-11T01:06:00;30.90;;;19.08;;
25846;SDS011;13676;50.168;8.568;2022-12-11T01:08:25;35.67;;;21.40;;
25846;SDS011;13676;50.168;8.568;2022-12-11T01:10:51;36.58;;;23.25;;
25846;SDS011;13676;50.168;8.568;2022-12-11T01:13:25;34.75;;;21.10;;
25846;SDS011;13676;50.168;8.568;2022-12-11T01:15:50;32.58;;;20.70;;
25846;SDS011;13676;50.168;8.568;2022-12-11T01:18:16;32.47;;;20.42;;
25846;SDS011;13676;50.168;8.568;2022-12-11T01:20:41;31.35;;;19.83;;
25846;SDS011;13676;50.168;8.568;2022-12-11T01:23:07;33.97;;;21.30;;
25846;SDS011;13676;50.168;8.568;2022-12-11T01:25:34;36.65;;;22.85;;
25846;SDS011;13676;50.168;8.568;2022-12-11T01:28:02;38.50;;;23.23;;
25846;SDS011;13676;50.168;8.568;2022-12-11T01:30:27;42.03;;;24.42;;
25846;SDS011;13676;50.168;8.568;2022-12-11T01:32:53;38.50;;;23.38;;
25846;SDS011;13676;50.168;8.568;2022-12-11T01:35:18;41.08;;;23.60;;
25846;SDS011;13676;50.168;8.568;2022-12-11T01:37:44;33.95;;;21.25;;
25846;SDS011;13676;50.168;8.568;2022-12-11T01:40:11;33.55;;;21.23;;
25846;SDS011;13676;50.168;8.568;2022-12-11T01:42:38;34.80;;;20.98;;
25846;SDS011;13676;50.168;8.568;2022-12-11T01:47:51;35.92;;;21.75;;
25846;SDS011;13676;50.168;8.568;2022-12-11T01:50:19;34.38;;;20.02;;
25846;SDS011;13676;50.168;8.568;2022-12-11T01:52:46;43.92;;;26.27;;
25846;SDS011;13676;50.168;8.568;2022-12-11T01:55:13;38.53;;;25.20;;
25846;SDS011;13676;50.168;8.568;2022-12-11T01:57:39;36.47;;;22.67;;
25846;SDS011;13676;50.168;8.568;2022-12-11T02:02:32;33.60;;;19.58;;
25846;SDS011;13676;50.168;8.568;2022-12-11T02:04:58;35.53;;;21.20;;
25846;SDS011;13676;50.168;8.568;2022-12-11T02:07:23;30.42;;;18.98;;
25846;SDS011;13676;50.168;8.568;2022-12-11T02:09:49;33.95;;;20.45;;
25846;SDS011;13676;50.168;8.568;2022-12-11T02:17:47;34.22;;;20.65;;
25846;SDS011;13676;50.168;8.568;2022-12-11T02:20:19;37.53;;;21.45;;
25846;SDS011;13676;50.168;8.568;2022-12-11T02:28:42;31.48;;;20.27;;
25846;SDS011;13676;50.168;8.568;2022-12-11T02:34:04;33.67;;;21.25;;
25846;SDS011;13676;50.168;8.568;2022-12-11T02:36:37;34.75;;;21.17;;
25846;SDS011;13676;50.168;8.568;2022-12-11T02:39:06;32.58;;;21.48;;
25846;SDS011;13676;50.168;8.568;2022-12-11T02:41:36;35.83;;;21.95;;
25846;SDS011;13676;50.168;8.568;2022-12-11T02:44:04;39.22;;;22.27;;
25846;SDS011;13676;50.168;8.568;2022-12-11T02:46:30;33.63;;;22.70;;
25846;SDS011;13676;50.168;8.568;2022-12-11T02:48:58;36.05;;;22.38;;
25846;SDS011;13676;50.168;8.568;2022-12-11T02:51:27;34.85;;;21.80;;
25846;SDS011;13676;50.168;8.568;2022-12-11T02:53:55;32.70;;;20.58;;
25846;SDS011;13676;50.168;8.568;2022-12-11T02:56:29;42.00;;;23.92;;
25846;SDS011;13676;50.168;8.568;2022-12-11T02:58:59;36.20;;;21.95;;
25846;SDS011;13676;50.168;8.568;2022-12-11T03:01:26;35.88;;;22.88;;
25846;SDS011;13676;50.168;8.568;2022-12-11T03:03:53;33.13;;;21.23;;
25846;SDS011;13676;50.168;8.568;2022-12-11T03:06:19;38.00;;;23.08;;
25846;SDS011;13676;50.168;8.568;2022-12-11T03:08:46;36.17;;;21.60;;
25846;SDS011;13676;50.168;8.568;2022-12-11T03:11:12;38.58;;;22.58;;
25846;SDS011;13676;50.168;8.568;2022-12-11T03:13:38;35.13;;;22.45;;
25846;SDS011;13676;50.168;8.568;2022-12-11T03:18:53;36.25;;;23.25;;
25846;SDS011;13676;50.168;8.568;2022-12-11T03:22:25;35.20;;;21.23;;
25846;SDS011;13676;50.168;8.568;2022-12-11T03:28:10;32.50;;;19.65;;
25846;SDS011;13676;50.168;8.568;2022-12-11T03:30:13;36.28;;;22.25;;
25846;SDS011;13676;50.168;8.568;2022-12-11T03:32:52;33.65;;;20.70;;
25846;SDS011;13676;50.168;8.568;2022-12-11T03:35:22;39.95;;;22.80;;
25846;SDS011;13676;50.168;8.568;2022-12-11T03:37:50;41.85;;;23.55;;
25846;SDS011;13676;50.168;8.568;2022-12-11T03:40:18;36.60;;;20.52;;
25846;SDS011;13676;50.168;8.568;2022-12-11T03:42:45;35.65;;;21.95;;
25846;SDS011;13676;50.168;8.568;2022-12-11T03:45:13;32.17;;;20.15;;
25846;SDS011;13676;50.168;8.568;2022-12-11T03:47:38;41.28;;;25.00;;
25846;SDS011;13676;50.168;8.568;2022-12-11T03:50:05;32.72;;;21.13;;
25846;SDS011;13676;50.168;8.568;2022-12-11T03:52:33;30.30;;;20.05;;
25846;SDS011;13676;50.168;8.568;2022-12-11T03:54:59;37.40;;;22.77;;
25846;SDS011;13676;50.168;8.568;2022-12-11T03:57:28;35.38;;;20.08;;
25846;SDS011;13676;50.168;8.568;2022-12-11T03:59:55;33.85;;;20.77;;
25846;SDS011;13676;50.168;8.568;2022-12-11T04:02:21;35.83;;;22.63;;
25846;SDS011;13676;50.168;8.568;2022-12-11T04:04:46;34.17;;;21.50;;
25846;SDS011;13676;50.168;8.568;2022-12-11T04:07:12;39.88;;;21.85;;
25846;SDS011;13676;50.168;8.568;2022-12-11T04:09:37;35.80;;;21.35;;
25846;SDS011;13676;50.168;8.568;2022-12-11T04:12:02;33.08;;;20.55;;
25846;SDS011;13676;50.168;8.568;2022-12-11T04:14:28;33.60;;;21.67;;
25846;SDS011;13676;50.168;8.568;2022-12-11T04:17:11;37.90;;;22.13;;
25846;SDS011;13676;50.168;8.568;2022-12-11T04:19:57;36.20;;;22.73;;
25846;SDS011;13676;50.168;8.568;2022-12-11T04:22:41;38.38;;;22.77;;
25846;SDS011;13676;50.168;8.568;2022-12-11T04:25:25;39.42;;;24.17;;
25846;SDS011;13676;50.168;8.568;2022-12-11T04:27:50;38.92;;;24.52;;
25846;SDS011;13676;50.168;8.568;2022-12-11T04:30:17;37.33;;;22.52;;
25846;SDS011;13676;50.168;8.568;2022-12-11T04:32:44;33.95;;;20.63;;
25846;SDS011;13676;50.168;8.568;2022-12-11T04:35:10;35.10;;;21.45;;
25846;SDS011;13676;50.168;8.568;2022-12-11T04:37:36;32.00;;;20.30;;
25846;SDS011;13676;50.168;8.568;2022-12-11T04:40:05;36.33;;;21.08;;
25846;SDS011;13676;50.168;8.568;2022-12-11T04:42:32;33.55;;;22.00;;
25846;SDS011;13676;50.168;8.568;2022-12-11T04:44:57;38.30;;;23.55;;
25846;SDS011;13676;50.168;8.568;2022-12-11T04:47:23;43.13;;;22.52;;
25846;SDS011;13676;50.168;8.568;2022-12-11T04:49:48;35.30;;;21.58;;
25846;SDS011;13676;50.168;8.568;2022-12-11T04:52:14;34.55;;;21.88;;
25846;SDS011;13676;50.168;8.568;2022-12-11T04:54:39;36.50;;;21.83;;
25846;SDS011;13676;50.168;8.568;2022-12-11T04:57:05;34.17;;;20.75;;
25846;SDS011;13676;50.168;8.568;2022-12-11T04:59:31;35.65;;;22.63;;
25846;SDS011;13676;50.168;8.568;2022-12-11T05:01:56;31.75;;;21.33;;
25846;SDS011;13676;50.168;8.568;2022-12-11T05:04:22;40.97;;;24.65;;
25846;SDS011;13676;50.168;8.568;2022-12-11T05:06:48;33.63;;;21.40;;
25846;SDS011;13676;50.168;8.568;2022-12-11T05:09:14;39.20;;;23.73;;
25846;SDS011;13676;50.168;8.568;2022-12-11T05:11:40;35.22;;;22.33;;
25846;SDS011;13676;50.168;8.568;2022-12-11T05:14:06;38.83;;;23.60;;
25846;SDS011;13676;50.168;8.568;2022-12-11T05:16:31;41.65;;;24.52;;
25846;SDS011;13676;50.168;8.568;2022-12-11T05:18:57;37.30;;;23.80;;
25846;SDS011;13676;50.168;8.568;2022-12-11T05:21:22;38.50;;;24.10;;
25846;SDS011;13676;50.168;8.568;2022-12-11T05:23:47;34.50;;;22.38;;
25846;SDS011;13676;50.168;8.568;2022-12-11T05:26:14;44.40;;;27.33;;
25846;SDS011;13676;50.168;8.568;2022-12-11T05:28:41;48.00;;;26.75;;
25846;SDS011;13676;50.168;8.568;2022-12-11T05:31:16;42.22;;;24.30;;
25846;SDS011;13676;50.168;8.568;2022-12-11T05:33:44;45.40;;;27.90;;
25846;SDS011;13676;50.168;8.568;2022-12-11T05:36:17;42.33;;;25.13;;
25846;SDS011;13676;50.168;8.568;2022-12-11T05:38:47;38.85;;;24.90;;
25846;SDS011;13676;50.168;8.568;2022-12-11T05:41:14;38.85;;;23.75;;
25846;SDS011;13676;50.168;8.568;2022-12-11T05:43:40;46.22;;;27.25;;
25846;SDS011;13676;50.168;8.568;2022-12-11T05:46:14;42.83;;;24.88;;
25846;SDS011;13676;50.168;8.568;2022-12-11T05:48:42;40.08;;;24.42;;
25846;SDS011;13676;50.168;8.568;2022-12-11T05:51:09;35.13;;;22.33;;
25846;SDS011;13676;50.168;8.568;2022-12-11T05:53:35;38.55;;;24.85;;
25846;SDS011;13676;50.168;8.568;2022-12-11T05:56:05;34.25;;;21.77;;
25846;SDS011;13676;50.168;8.568;2022-12-11T05:58:32;35.35;;;22.20;;
25846;SDS011;13676;50.168;8.568;2022-12-11T06:00:59;43.28;;;24.70;;
25846;SDS011;13676;50.168;8.568;2022-12-11T06:03:24;44.13;;;25.75;;
25846;SDS011;13676;50.168;8.568;2022-12-11T06:05:50;36.80;;;23.85;;
25846;SDS011;13676;50.168;8.568;2022-12-11T06:08:15;43.17;;;25.38;;
25846;SDS011;13676;50.168;8.568;2022-12-11T06:10:47;42.42;;;25.50;;
25846;SDS011;13676;50.168;8.568;2022-12-11T06:13:13;38.00;;;23.15;;
25846;SDS011;13676;50.168;8.568;2022-12-11T06:15:39;38.30;;;23.92;;
25846;SDS011;13676;50.168;8.568;2022-12-11T06:18:04;38.20;;;24.05;;
25846;SDS011;13676;50.168;8.568;2022-12-11T06:20:31;39.47;;;24.08;;
25846;SDS011;13676;50.168;8.568;2022-12-11T06:22:57;40.70;;;24.30;;
25846;SDS011;13676;50.168;8.568;2022-12-11T06:25:23;44.15;;;26.92;;
25846;SDS011;13676;50.168;8.568;2022-12-11T06:27:48;42.47;;;25.13;;
25846;SDS011;13676;50.168;8.568;2022-12-11T06:30:14;40.25;;;25.45;;
25846;SDS011;13676;50.168;8.568;2022-12-11T06:32:40;37.63;;;23.58;;
25846;SDS011;13676;50.168;8.568;2022-12-11T06:35:06;37.92;;;22.67;;
25846;SDS011;13676;50.168;8.568;2022-12-11T06:37:31;44.03;;;25.38;;
25846;SDS011;13676;50.168;8.568;2022-12-11T06:39:59;40.20;;;25.05;;
25846;SDS011;13676;50.168;8.568;2022-12-11T06:42:24;39.97;;;24.20;;
25846;SDS011;13676;50.168;8.568;2022-12-11T06:44:49;40.78;;;24.20;;
25846;SDS011;13676;50.168;8.568;2022-12-11T06:47:15;37.45;;;23.17;;
25846;SDS011;13676;50.168;8.568;2022-12-11T06:49:40;37.13;;;23.88;;
25846;SDS011;13676;50.168;8.568;2022-12-11T06:52:05;42.97;;;23.83;;
25846;SDS011;13676;50.168;8.568;2022-12-11T06:54:31;41.85;;;24.98;;
25846;SDS011;13676;50.168;8.568;2022-12-11T06:56:56;36.30;;;22.58;;
25846;SDS011;13676;50.168;8.568;2022-12-11T06:59:22;38.75;;;23.02;;
25846;SDS011;13676;50.168;8.568;2022-12-11T07:01:48;44.22;;;24.30;;
25846;SDS011;13676;50.168;8.568;2022-12-11T07:04:13;37.08;;;22.35;;
25846;SDS011;13676;50.168;8.568;2022-12-11T07:06:38;41.00;;;25.95;;
25846;SDS011;13676;50.168;8.568;2022-12-11T07:09:04;40.35;;;23.95;;
25846;SDS011;13676;50.168;8.568;2022-12-11T07:11:30;39.53;;;25.23;;
25846;SDS011;13676;50.168;8.568;2022-12-11T07:13:57;39.88;;;24.98;;
25846;SDS011;13676;50.168;8.568;2022-12-11T07:16:24;37.92;;;22.65;;
25846;SDS011;13676;50.168;8.568;2022-12-11T07:18:49;40.47;;;23.80;;
25846;SDS011;13676;50.168;8.568;2022-12-11T07:21:15;40.28;;;24.50;;
25846;SDS011;13676;50.168;8.568;2022-12-11T07:23:41;44.05;;;25.00;;
25846;SDS011;13676;50.168;8.568;2022-12-11T07:26:08;40.00;;;23.30;;
25846;SDS011;13676;50.168;8.568;2022-12-11T07:28:35;39.15;;;24.42;;
25846;SDS011;13676;50.168;8.568;2022-12-11T07:31:04;44.10;;;26.60;;
25846;SDS011;13676;50.168;8.568;2022-12-11T07:33:33;36.92;;;24.00;;
25846;SDS011;13676;50.168;8.568;2022-12-11T07:36:00;44.53;;;26.77;;
25846;SDS011;13676;50.168;8.568;2022-12-11T07:38:27;41.40;;;24.80;;
25846;SDS011;13676;50.168;8.568;2022-12-11T07:40:52;41.72;;;25.67;;
25846;SDS011;13676;50.168;8.568;2022-12-11T07:43:18;40.55;;;25.00;;
25846;SDS011;13676;50.168;8.568;2022-12-11T07:45:43;38.10;;;22.58;;
25846;SDS011;13676;50.168;8.568;2022-12-11T07:48:08;42.58;;;24.92;;
25846;SDS011;13676;50.168;8.568;2022-12-11T07:50:34;44.72;;;26.90;;
25846;SDS011;13676;50.168;8.568;2022-12-11T07:52:59;44.58;;;25.90;;
25846;SDS011;13676;50.168;8.568;2022-12-11T07:55:24;43.25;;;25.38;;
25846;SDS011;13676;50.168;8.568;2022-12-11T07:57:50;49.90;;;28.85;;
25846;SDS011;13676;50.168;8.568;2022-12-11T08:00:15;45.65;;;26.85;;
25846;SDS011;13676;50.168;8.568;2022-12-11T08:02:41;42.72;;;25.83;;
25846;SDS011;13676;50.168;8.568;2022-12-11T08:05:06;49.38;;;28.48;;
25846;SDS011;13676;50.168;8.568;2022-12-11T08:07:33;48.63;;;29.65;;
25846;SDS011;13676;50.168;8.568;2022-12-11T08:10:02;52.55;;;28.30;;
25846;SDS011;13676;50.168;8.568;2022-12-11T08:12:28;51.70;;;29.48;;
25846;SDS011;13676;50.168;8.568;2022-12-11T08:14:54;47.25;;;27.67;;
25846;SDS011;13676;50.168;8.568;2022-12-11T08:17:19;52.22;;;29.65;;
25846;SDS011;13676;50.168;8.568;2022-12-11T08:19:44;45.17;;;28.25;;
25846;SDS011;13676;50.168;8.568;2022-12-11T08:22:10;54.00;;;29.52;;
25846;SDS011;13676;50.168;8.568;2022-12-11T08:24:35;47.40;;;27.35;;
25846;SDS011;13676;50.168;8.568;2022-12-11T08:27:01;45.33;;;27.05;;
25846;SDS011;13676;50.168;8.568;2022-12-11T08:29:26;49.92;;;28.40;;
25846;SDS011;13676;50.168;8.568;2022-12-11T08:31:52;46.83;;;27.38;;
25846;SDS011;13676;50.168;8.568;2022-12-11T08:34:17;43.03;;;26.17;;
25846;SDS011;13676;50.168;8.568;2022-12-11T08:36:42;45.53;;;26.45;;
25846;SDS011;13676;50.168;8.568;2022-12-11T08:39:08;43.03;;;25.90;;
25846;SDS011;13676;50.168;8.568;2022-12-11T08:41:34;40.95;;;25.92;;
25846;SDS011;13676;50.168;8.568;2022-12-11T08:43:59;49.45;;;27.85;;
25846;SDS011;13676;50.168;8.568;2022-12-11T08:46:26;56.00;;;32.40;;
25846;SDS011;13676;50.168;8.568;2022-12-11T08:48:53;53.60;;;30.20;;
25846;SDS011;13676;50.168;8.568;2022-12-11T08:51:22;47.35;;;27.55;;
25846;SDS011;13676;50.168;8.568;2022-12-11T08:53:49;48.75;;;28.25;;
25846;SDS011;13676;50.168;8.568;2022-12-11T08:56:16;44.17;;;26.50;;
25846;SDS011;13676;50.168;8.568;2022-12-11T09:01:09;51.05;;;29.40;;
25846;SDS011;13676;50.168;8.568;2022-12-11T09:03:38;51.58;;;31.10;;
25846;SDS011;13676;50.168;8.568;2022-12-11T09:06:08;49.05;;;30.52;;
25846;SDS011;13676;50.168;8.568;2022-12-11T09:08:36;52.50;;;30.48;;
25846;SDS011;13676;50.168;8.568;2022-12-11T09:11:09;53.25;;;30.63;;
25846;SDS011;13676;50.168;8.568;2022-12-11T09:13:36;51.22;;;31.52;;
25846;SDS011;13676;50.168;8.568;2022-12-11T09:16:02;49.85;;;29.60;;
25846;SDS011;13676;50.168;8.568;2022-12-11T09:18:29;51.67;;;31.05;;
25846;SDS011;13676;50.168;8.568;2022-12-11T09:21:05;48.50;;;29.77;;
25846;SDS011;13676;50.168;8.568;2022-12-11T09:23:34;53.75;;;30.38;;
25846;SDS011;13676;50.168;8.568;2022-12-11T09:26:02;47.20;;;28.27;;
25846;SDS011;13676;50.168;8.568;2022-12-11T09:28:28;44.67;;;27.90;;
25846;SDS011;13676;50.168;8.568;2022-12-11T09:30:55;47.92;;;29.02;;
25846;SDS011;13676;50.168;8.568;2022-12-11T09:33:20;46.83;;;28.55;;
25846;SDS011;13676;50.168;8.568;2022-12-11T09:35:45;48.67;;;28.80;;
25846;SDS011;13676;50.168;8.568;2022-12-11T09:38:21;44.20;;;26.35;;
25846;SDS011;13676;50.168;8.568;2022-12-11T09:40:46;41.25;;;25.33;;
25846;SDS011;13676;50.168;8.568;2022-12-11T09:43:14;39.45;;;24.40;;
25846;SDS011;13676;50.168;8.568;2022-12-11T09:45:44;45.08;;;25.83;;
25846;SDS011;13676;50.168;8.568;2022-12-11T09:48:19;47.63;;;27.80;;
25846;SDS011;13676;50.168;8.568;2022-12-11T09:50:46;48.15;;;27.83;;
25846;SDS011;13676;50.168;8.568;2022-12-11T09:56:03;40.83;;;25.67;;
25846;SDS011;13676;50.168;8.568;2022-12-11T10:01:10;49.20;;;28.05;;
25846;SDS011;13676;50.168;8.568;2022-12-11T10:06:32;56.08;;;32.28;;
25846;SDS011;13676;50.168;8.568;2022-12-11T10:17:40;63.25;;;36.28;;
25846;SDS011;13676;50.168;8.568;2022-12-11T10:22:34;67.95;;;37.92;;
25846;SDS011;13676;50.168;8.568;2022-12-11T10:25:00;56.25;;;32.90;;
25846;SDS011;13676;50.168;8.568;2022-12-11T10:27:30;62.80;;;33.53;;
25846;SDS011;13676;50.168;8.568;2022-12-11T10:30:15;62.50;;;35.08;;
25846;SDS011;13676;50.168;8.568;2022-12-11T10:35:23;69.90;;;40.75;;
25846;SDS011;13676;50.168;8.568;2022-12-11T10:37:54;62.80;;;36.53;;
25846;SDS011;13676;50.168;8.568;2022-12-11T10:40:21;68.05;;;38.90;;
25846;SDS011;13676;50.168;8.568;2022-12-11T10:42:52;64.60;;;35.88;;
25846;SDS011;13676;50.168;8.568;2022-12-11T10:45:18;63.20;;;37.47;;
25846;SDS011;13676;50.168;8.568;2022-12-11T10:47:44;70.07;;;40.28;;
25846;SDS011;13676;50.168;8.568;2022-12-11T10:50:25;63.38;;;37.08;;
25846;SDS011;13676;50.168;8.568;2022-12-11T10:52:50;59.80;;;35.92;;
25846;SDS011;13676;50.168;8.568;2022-12-11T10:57:54;72.45;;;42.00;;
25846;SDS011;13676;50.168;8.568;2022-12-11T11:00:36;66.18;;;39.38;;
25846;SDS011;13676;50.168;8.568;2022-12-11T11:03:04;78.82;;;43.90;;
25846;SDS011;13676;50.168;8.568;2022-12-11T11:05:32;75.43;;;41.15;;
25846;SDS011;13676;50.168;8.568;2022-12-11T11:08:15;71.18;;;41.25;;
25846;SDS011;13676;50.168;8.568;2022-12-11T11:13:28;73.38;;;41.05;;
25846;SDS011;13676;50.168;8.568;2022-12-11T11:16:14;78.07;;;42.72;;
25846;SDS011;13676;50.168;8.568;2022-12-11T11:18:41;95.53;;;50.10;;
25846;SDS011;13676;50.168;8.568;2022-12-11T11:21:19;83.30;;;44.83;;
25846;SDS011;13676;50.168;8.568;2022-12-11T11:23:49;68.78;;;40.00;;
25846;SDS011;13676;50.168;8.568;2022-12-11T11:26:15;85.93;;;48.45;;
25846;SDS011;13676;50.168;8.568;2022-12-11T11:28:46;72.32;;;42.30;;
25846;SDS011;13676;50.168;8.568;2022-12-11T11:31:14;74.70;;;42.13;;
25846;SDS011;13676;50.168;8.568;2022-12-11T11:33:50;76.78;;;44.80;;
25846;SDS011;13676;50.168;8.568;2022-12-11T11:36:21;68.95;;;39.08;;
25846;SDS011;13676;50.168;8.568;2022-12-11T11:38:56;78.57;;;45.72;;
25846;SDS011;13676;50.168;8.568;2022-12-11T11:41:45;78.43;;;44.40;;
25846;SDS011;13676;50.168;8.568;2022-12-11T11:44:17;89.75;;;51.65;;
25846;SDS011;13676;50.168;8.568;2022-12-11T11:46:53;80.45;;;46.10;;
25846;SDS011;13676;50.168;8.568;2022-12-11T11:55:23;63.17;;;35.92;;
25846;SDS011;13676;50.168;8.568;2022-12-11T11:58:00;66.30;;;37.25;;
25846;SDS011;13676;50.168;8.568;2022-12-11T12:00:31;61.08;;;33.22;;
25846;SDS011;13676;50.168;8.568;2022-12-11T12:03:00;53.97;;;30.63;;
25846;SDS011;13676;50.168;8.568;2022-12-11T12:05:32;67.45;;;35.70;;
25846;SDS011;13676;50.168;8.568;2022-12-11T12:16:06;59.42;;;31.73;;
25846;SDS011;13676;50.168;8.568;2022-12-11T12:21:35;52.85;;;29.55;;
25846;SDS011;13676;50.168;8.568;2022-12-11T12:26:54;52.42;;;29.17;;
25846;SDS011;13676;50.168;8.568;2022-12-11T12:29:28;54.25;;;28.52;;
25846;SDS011;13676;50.168;8.568;2022-12-11T12:39:56;44.92;;;26.02;;
25846;SDS011;13676;50.168;8.568;2022-12-11T12:45:15;46.80;;;26.27;;
25846;SDS011;13676;50.168;8.568;2022-12-11T12:47:46;42.67;;;24.70;;
25846;SDS011;13676;50.168;8.568;2022-12-11T12:50:14;47.93;;;26.47;;
25846;SDS011;13676;50.168;8.568;2022-12-11T12:52:41;51.30;;;29.25;;
25846;SDS011;13676;50.168;8.568;2022-12-11T13:00:34;41.65;;;23.67;;
25846;SDS011;13676;50.168;8.568;2022-12-11T13:03:11;48.42;;;25.60;;
25846;SDS011;13676;50.168;8.568;2022-12-11T13:05:53;50.75;;;26.60;;
25846;SDS011;13676;50.168;8.568;2022-12-11T13:08:24;55.75;;;28.85;;
25846;SDS011;13676;50.168;8.568;2022-12-11T13:11:02;49.28;;;27.33;;
25846;SDS011;13676;50.168;8.568;2022-12-11T13:13:35;45.83;;;25.77;;
25846;SDS011;13676;50.168;8.568;2022-12-11T13:16:06;47.50;;;24.85;;
25846;SDS011;13676;50.168;8.568;2022-12-11T13:18:42;51.00;;;27.33;;
25846;SDS011;13676;50.168;8.568;2022-12-11T13:21:28;45.72;;;23.35;;
25846;SDS011;13676;50.168;8.568;2022-12-11T13:26:44;42.38;;;21.42;;
25846;SDS011;13676;50.168;8.568;2022-12-11T13:29:29;35.53;;;19.50;;
25846;SDS011;13676;50.168;8.568;2022-12-11T13:34:34;37.55;;;19.88;;
25846;SDS011;13676;50.168;8.568;2022-12-11T13:37:01;41.95;;;23.52;;
25846;SDS011;13676;50.168;8.568;2022-12-11T13:39:29;44.50;;;22.73;;
25846;SDS011;13676;50.168;8.568;2022-12-11T13:41:56;43.40;;;23.05;;
25846;SDS011;13676;50.168;8.568;2022-12-11T13:44:26;44.53;;;22.05;;
25846;SDS011;13676;50.168;8.568;2022-12-11T13:46:54;42.67;;;22.55;;
25846;SDS011;13676;50.168;8.568;2022-12-11T13:49:22;44.38;;;23.80;;
25846;SDS011;13676;50.168;8.568;2022-12-11T13:51:51;44.67;;;23.52;;
25846;SDS011;13676;50.168;8.568;2022-12-11T13:59:34;34.38;;;17.55;;
25846;SDS011;13676;50.168;8.568;2022-12-11T14:02:43;36.83;;;19.90;;
25846;SDS011;13676;50.168;8.568;2022-12-11T14:05:07;44.45;;;24.58;;
25846;SDS011;13676;50.168;8.568;2022-12-11T14:07:34;55.13;;;28.60;;
25846;SDS011;13676;50.168;8.568;2022-12-11T14:10:04;52.70;;;28.05;;
25846;SDS011;13676;50.168;8.568;2022-12-11T14:12:31;46.60;;;24.73;;
25846;SDS011;13676;50.168;8.568;2022-12-11T14:14:58;44.08;;;22.02;;
25846;SDS011;13676;50.168;8.568;2022-12-11T14:17:27;43.78;;;21.83;;
25846;SDS011;13676;50.168;8.568;2022-12-11T14:19:56;37.95;;;17.88;;
25846;SDS011;13676;50.168;8.568;2022-12-11T14:22:24;34.88;;;19.02;;
25846;SDS011;13676;50.168;8.568;2022-12-11T14:24:51;33.63;;;17.33;;
25846;SDS011;13676;50.168;8.568;2022-12-11T14:27:21;32.63;;;17.40;;
25846;SDS011;13676;50.168;8.568;2022-12-11T14:29:47;28.02;;;15.07;;
25846;SDS011;13676;50.168;8.568;2022-12-11T14:32:45;33.42;;;17.30;;
25846;SDS011;13676;50.168;8.568;2022-12-11T14:35:09;34.05;;;17.55;;
25846;SDS011;13676;50.168;8.568;2022-12-11T14:37:44;28.33;;;15.75;;
25846;SDS011;13676;50.168;8.568;2022-12-11T14:40:13;28.75;;;16.15;;
25846;SDS011;13676;50.168;8.568;2022-12-11T14:42:45;29.95;;;16.35;;
25846;SDS011;13676;50.168;8.568;2022-12-11T14:47:46;41.25;;;22.42;;
25846;SDS011;13676;50.168;8.568;2022-12-11T14:52:45;33.67;;;18.25;;
25846;SDS011;13676;50.168;8.568;2022-12-11T14:55:14;28.95;;;16.05;;
25846;SDS011;13676;50.168;8.568;2022-12-11T14:57:43;32.53;;;16.75;;
25846;SDS011;13676;50.168;8.568;2022-12-11T15:00:24;35.67;;;19.20;;
25846;SDS011;13676;50.168;8.568;2022-12-11T15:03:02;32.65;;;17.05;;
25846;SDS011;13676;50.168;8.568;2022-12-11T15:05:32;32.33;;;16.08;;
25846;SDS011;13676;50.168;8.568;2022-12-11T15:10:39;30.45;;;16.63;;
25846;SDS011;13676;50.168;8.568;2022-12-11T15:13:07;28.88;;;15.50;;
25846;SDS011;13676;50.168;8.568;2022-12-11T15:15:51;32.20;;;16.50;;
25846;SDS011;13676;50.168;8.568;2022-12-11T15:18:31;32.45;;;16.42;;
25846;SDS011;13676;50.168;8.568;2022-12-11T15:20:58;31.13;;;17.67;;
25846;SDS011;13676;50.168;8.568;2022-12-11T15:23:27;32.72;;;17.27;;
25846;SDS011;13676;50.168;8.568;2022-12-11T15:25:57;31.50;;;17.95;;
25846;SDS011;13676;50.168;8.568;2022-12-11T15:28:33;30.15;;;16.27;;
25846;SDS011;13676;50.168;8.568;2022-12-11T15:31:01;36.67;;;19.52;;
25846;SDS011;13676;50.168;8.568;2022-12-11T15:33:28;37.97;;;18.60;;
25846;SDS011;13676;50.168;8.568;2022-12-11T15:35:58;33.92;;;18.40;;
25846;SDS011;13676;50.168;8.568;2022-12-11T15:40:53;38.97;;;21.05;;
25846;SDS011;13676;50.168;8.568;2022-12-11T15:43:19;36.83;;;19.30;;
25846;SDS011;13676;50.168;8.568;2022-12-11T15:45:45;34.83;;;18.42;;
25846;SDS011;13676;50.168;8.568;2022-12-11T15:48:10;37.50;;;20.65;;
25846;SDS011;13676;50.168;8.568;2022-12-11T15:50:35;34.05;;;18.67;;
25846;SDS011;13676;50.168;8.568;2022-12-11T15:53:01;44.40;;;23.58;;
25846;SDS011;13676;50.168;8.568;2022-12-11T15:55:26;40.40;;;20.48;;
25846;SDS011;13676;50.168;8.568;2022-12-11T15:57:58;39.17;;;20.48;;
25846;SDS011;13676;50.168;8.568;2022-12-11T16:02:52;41.42;;;20.17;;
25846;SDS011;13676;50.168;8.568;2022-12-11T16:05:18;37.83;;;20.05;;
25846;SDS011;13676;50.168;8.568;2022-12-11T16:07:44;38.55;;;21.90;;
25846;SDS011;13676;50.168;8.568;2022-12-11T16:10:13;41.40;;;21.98;;
25846;SDS011;13676;50.168;8.568;2022-12-11T16:12:41;33.60;;;19.23;;
25846;SDS011;13676;50.168;8.568;2022-12-11T16:15:07;35.15;;;18.63;;
25846;SDS011;13676;50.168;8.568;2022-12-11T16:17:33;34.53;;;19.40;;
25846;SDS011;13676;50.168;8.568;2022-12-11T16:19:59;34.72;;;18.08;;
25846;SDS011;13676;50.168;8.568;2022-12-11T16:22:24;34.67;;;17.40;;